sensor_id;sensor_type;location;lat;lon;timestamp;P1;durP1;ratioP1;P2;durP2;ratioP2
10845;SDS011;5476;51.540;7.186;2022-09-06T00:00:57;4.20;;;3.80;;
10845;SDS011;5476;51.540;7.186;2022-09-06T00:03:25;5.93;;;4.10;;
10845;SDS011;5476;51.540;7.186;2022-09-06T00:05:52;5.20;;;4.10;;
10845;SDS011;5476;51.540;7.186;2022-09-06T00:08:21;7.70;;;4.30;;
10845;SDS011;5476;51.540;7.186;2022-09-06T00:10:55;4.40;;;4.00;;
10845;SDS011;5476;51.540;7.186;2022-09-06T00:13:22;4.80;;;4.07;;
10845;SDS011;5476;51.540;7.186;2022-09-06T00:15:50;6.45;;;4.32;;
10845;SDS011;5476;51.540;7.186;2022-09-06T00:18:17;6.07;;;5.32;;
10845;SDS011;5476;51.540;7.186;2022-09-06T00:20:44;6.65;;;4.45;;
10845;SDS011;5476;51.540;7.186;2022-09-06T00:23:12;5.53;;;4.45;;
10845;SDS011;5476;51.540;7.186;2022-09-06T00:25:40;5.03;;;4.13;;
10845;SDS011;5476;51.540;7.186;2022-09-06T00:28:08;4.60;;;4.00;;
10845;SDS011;5476;51.540;7.186;2022-09-06T00:30:35;4.35;;;3.95;;
10845;SDS011;5476;51.540;7.186;2022-09-06T00:33:03;7.78;;;3.90;;
10845;SDS011;5476;51.540;7.186;2022-09-06T00:35:30;6.38;;;4.22;;
10845;SDS011;5476;51.540;7.186;2022-09-06T00:37:57;6.63;;;4.50;;
10845;SDS011;5476;51.540;7.186;2022-09-06T00:40:25;6.55;;;5.00;;
10845;SDS011;5476;51.540;7.186;2022-09-06T00:42:54;6.22;;;4.85;;
10845;SDS011;5476;51.540;7.186;2022-09-06T00:45:22;4.93;;;4.32;;
10845;SDS011;5476;51.540;7.186;2022-09-06T00:47:50;8.60;;;4.90;;
10845;SDS011;5476;51.540;7.186;2022-09-06T00:50:17;9.52;;;4.60;;
10845;SDS011;5476;51.540;7.186;2022-09-06T00:52:45;5.30;;;4.68;;
10845;SDS011;5476;51.540;7.186;2022-09-06T00:55:15;6.07;;;4.80;;
10845;SDS011;5476;51.540;7.186;2022-09-06T00:57:42;5.75;;;4.38;;
10845;SDS011;5476;51.540;7.186;2022-09-06T01:00:12;5.68;;;4.85;;
10845;SDS011;5476;51.540;7.186;2022-09-06T01:02:40;4.78;;;4.03;;
10845;SDS011;5476;51.540;7.186;2022-09-06T01:05:08;10.10;;;4.60;;
10845;SDS011;5476;51.540;7.186;2022-09-06T01:07:40;6.45;;;4.68;;
10845;SDS011;5476;51.540;7.186;2022-09-06T01:12:57;5.40;;;4.03;;
10845;SDS011;5476;51.540;7.186;2022-09-06T01:15:29;7.85;;;4.90;;
10845;SDS011;5476;51.540;7.186;2022-09-06T01:18:00;6.68;;;4.57;;
10845;SDS011;5476;51.540;7.186;2022-09-06T01:20:40;7.13;;;4.57;;
10845;SDS011;5476;51.540;7.186;2022-09-06T01:26:02;6.35;;;4.70;;
10845;SDS011;5476;51.540;7.186;2022-09-06T01:28:33;7.72;;;4.45;;
10845;SDS011;5476;51.540;7.186;2022-09-06T01:31:03;7.97;;;4.72;;
10845;SDS011;5476;51.540;7.186;2022-09-06T01:33:34;6.03;;;4.47;;
10845;SDS011;5476;51.540;7.186;2022-09-06T01:36:04;5.60;;;4.07;;
10845;SDS011;5476;51.540;7.186;2022-09-06T01:38:33;5.82;;;4.13;;
10845;SDS011;5476;51.540;7.186;2022-09-06T01:41:00;5.82;;;4.30;;
10845;SDS011;5476;51.540;7.186;2022-09-06T01:43:29;4.78;;;4.28;;
10845;SDS011;5476;51.540;7.186;2022-09-06T01:46:01;6.05;;;4.00;;
10845;SDS011;5476;51.540;7.186;2022-09-06T01:48:34;5.90;;;4.13;;
10845;SDS011;5476;51.540;7.186;2022-09-06T01:51:08;6.18;;;4.07;;
10845;SDS011;5476;51.540;7.186;2022-09-06T01:53:42;4.82;;;3.85;;
10845;SDS011;5476;51.540;7.186;2022-09-06T01:56:13;5.95;;;4.07;;
10845;SDS011;5476;51.540;7.186;2022-09-06T01:58:51;7.57;;;4.45;;
10845;SDS011;5476;51.540;7.186;2022-09-06T02:01:23;9.65;;;4.65;;
10845;SDS011;5476;51.540;7.186;2022-09-06T02:03:53;7.70;;;4.80;;
10845;SDS011;5476;51.540;7.186;2022-09-06T02:06:25;6.32;;;4.20;;
10845;SDS011;5476;51.540;7.186;2022-09-06T02:08:54;6.13;;;4.13;;
10845;SDS011;5476;51.540;7.186;2022-09-06T02:11:23;5.85;;;4.10;;
10845;SDS011;5476;51.540;7.186;2022-09-06T02:13:53;6.28;;;4.68;;
10845;SDS011;5476;51.540;7.186;2022-09-06T02:16:24;7.35;;;4.00;;
10845;SDS011;5476;51.540;7.186;2022-09-06T02:18:53;10.52;;;4.68;;
10845;SDS011;5476;51.540;7.186;2022-09-06T02:21:23;8.85;;;4.03;;
10845;SDS011;5476;51.540;7.186;2022-09-06T02:23:52;5.18;;;3.78;;
10845;SDS011;5476;51.540;7.186;2022-09-06T02:26:20;9.60;;;4.35;;
10845;SDS011;5476;51.540;7.186;2022-09-06T02:28:49;7.13;;;4.57;;
10845;SDS011;5476;51.540;7.186;2022-09-06T02:31:17;6.07;;;3.85;;
10845;SDS011;5476;51.540;7.186;2022-09-06T02:33:47;4.82;;;4.15;;
10845;SDS011;5476;51.540;7.186;2022-09-06T02:36:18;7.22;;;4.10;;
10845;SDS011;5476;51.540;7.186;2022-09-06T02:38:48;6.55;;;4.30;;
10845;SDS011;5476;51.540;7.186;2022-09-06T02:41:18;4.97;;;4.30;;
10845;SDS011;5476;51.540;7.186;2022-09-06T02:43:50;7.22;;;4.13;;
10845;SDS011;5476;51.540;7.186;2022-09-06T02:46:40;8.85;;;4.20;;
10845;SDS011;5476;51.540;7.186;2022-09-06T02:49:15;8.90;;;4.32;;
10845;SDS011;5476;51.540;7.186;2022-09-06T02:51:47;4.70;;;3.95;;
10845;SDS011;5476;51.540;7.186;2022-09-06T02:54:31;4.63;;;4.20;;
10845;SDS011;5476;51.540;7.186;2022-09-06T02:57:03;9.60;;;4.10;;
10845;SDS011;5476;51.540;7.186;2022-09-06T02:59:34;7.00;;;4.65;;
10845;SDS011;5476;51.540;7.186;2022-09-06T03:02:03;7.30;;;4.45;;
10845;SDS011;5476;51.540;7.186;2022-09-06T03:04:46;5.35;;;4.70;;
10845;SDS011;5476;51.540;7.186;2022-09-06T03:07:13;7.07;;;5.00;;
10845;SDS011;5476;51.540;7.186;2022-09-06T03:09:57;8.05;;;4.50;;
10845;SDS011;5476;51.540;7.186;2022-09-06T03:12:29;6.47;;;4.75;;
10845;SDS011;5476;51.540;7.186;2022-09-06T03:14:56;6.30;;;4.82;;
10845;SDS011;5476;51.540;7.186;2022-09-06T03:17:24;6.72;;;4.88;;
10845;SDS011;5476;51.540;7.186;2022-09-06T03:19:52;6.97;;;4.40;;
10845;SDS011;5476;51.540;7.186;2022-09-06T03:22:20;8.05;;;4.75;;
10845;SDS011;5476;51.540;7.186;2022-09-06T03:24:47;7.63;;;5.20;;
10845;SDS011;5476;51.540;7.186;2022-09-06T03:27:15;5.78;;;5.07;;
10845;SDS011;5476;51.540;7.186;2022-09-06T03:29:42;6.10;;;4.65;;
10845;SDS011;5476;51.540;7.186;2022-09-06T03:32:09;5.75;;;4.85;;
10845;SDS011;5476;51.540;7.186;2022-09-06T03:34:37;8.88;;;4.93;;
10845;SDS011;5476;51.540;7.186;2022-09-06T03:37:07;6.35;;;4.50;;
10845;SDS011;5476;51.540;7.186;2022-09-06T03:39:34;7.35;;;5.20;;
10845;SDS011;5476;51.540;7.186;2022-09-06T03:42:01;7.82;;;5.25;;
10845;SDS011;5476;51.540;7.186;2022-09-06T03:44:29;8.25;;;5.38;;
10845;SDS011;5476;51.540;7.186;2022-09-06T03:46:58;6.97;;;5.45;;
10845;SDS011;5476;51.540;7.186;2022-09-06T03:49:25;9.15;;;5.88;;
10845;SDS011;5476;51.540;7.186;2022-09-06T03:51:52;7.63;;;5.85;;
10845;SDS011;5476;51.540;7.186;2022-09-06T03:54:21;8.20;;;5.60;;
10845;SDS011;5476;51.540;7.186;2022-09-06T03:56:53;9.25;;;5.82;;
10845;SDS011;5476;51.540;7.186;2022-09-06T03:59:21;6.82;;;5.68;;
10845;SDS011;5476;51.540;7.186;2022-09-06T04:01:50;8.52;;;5.72;;
10845;SDS011;5476;51.540;7.186;2022-09-06T04:04:22;6.70;;;5.32;;
10845;SDS011;5476;51.540;7.186;2022-09-06T04:06:50;7.28;;;5.60;;
10845;SDS011;5476;51.540;7.186;2022-09-06T04:09:17;7.90;;;5.50;;
10845;SDS011;5476;51.540;7.186;2022-09-06T04:11:56;8.65;;;5.57;;
10845;SDS011;5476;51.540;7.186;2022-09-06T04:14:31;7.63;;;5.45;;
10845;SDS011;5476;51.540;7.186;2022-09-06T04:17:14;8.32;;;5.40;;
10845;SDS011;5476;51.540;7.186;2022-09-06T04:23:10;7.88;;;4.75;;
10845;SDS011;5476;51.540;7.186;2022-09-06T04:26:20;6.82;;;5.50;;
10845;SDS011;5476;51.540;7.186;2022-09-06T04:29:19;8.50;;;5.57;;
10845;SDS011;5476;51.540;7.186;2022-09-06T04:31:47;7.95;;;5.60;;
10845;SDS011;5476;51.540;7.186;2022-09-06T04:34:15;10.10;;;6.57;;
10845;SDS011;5476;51.540;7.186;2022-09-06T04:36:44;9.88;;;6.10;;
10845;SDS011;5476;51.540;7.186;2022-09-06T04:39:14;10.18;;;6.07;;
10845;SDS011;5476;51.540;7.186;2022-09-06T04:41:44;7.72;;;5.78;;
10845;SDS011;5476;51.540;7.186;2022-09-06T04:44:12;8.73;;;5.88;;
10845;SDS011;5476;51.540;7.186;2022-09-06T04:46:48;8.65;;;6.07;;
10845;SDS011;5476;51.540;7.186;2022-09-06T04:49:16;10.35;;;5.97;;
10845;SDS011;5476;51.540;7.186;2022-09-06T04:51:52;8.93;;;5.85;;
10845;SDS011;5476;51.540;7.186;2022-09-06T04:54:50;8.52;;;6.20;;
10845;SDS011;5476;51.540;7.186;2022-09-06T04:57:26;6.75;;;5.55;;
10845;SDS011;5476;51.540;7.186;2022-09-06T05:00:14;6.15;;;5.28;;
10845;SDS011;5476;51.540;7.186;2022-09-06T05:06:07;7.68;;;5.70;;
10845;SDS011;5476;51.540;7.186;2022-09-06T05:08:58;7.15;;;5.40;;
10845;SDS011;5476;51.540;7.186;2022-09-06T05:14:53;8.82;;;5.50;;
10845;SDS011;5476;51.540;7.186;2022-09-06T05:22:07;6.25;;;4.93;;
10845;SDS011;5476;51.540;7.186;2022-09-06T05:24:02;10.57;;;5.07;;
10845;SDS011;5476;51.540;7.186;2022-09-06T05:26:53;9.65;;;5.32;;
10845;SDS011;5476;51.540;7.186;2022-09-06T05:30:07;7.13;;;5.20;;
10845;SDS011;5476;51.540;7.186;2022-09-06T05:36:19;6.28;;;4.57;;
10845;SDS011;5476;51.540;7.186;2022-09-06T05:53:09;6.97;;;4.70;;
10845;SDS011;5476;51.540;7.186;2022-09-06T05:55:41;11.10;;;4.10;;
10845;SDS011;5476;51.540;7.186;2022-09-06T05:58:22;8.38;;;4.45;;
10845;SDS011;5476;51.540;7.186;2022-09-06T06:04:45;6.80;;;3.92;;
10845;SDS011;5476;51.540;7.186;2022-09-06T06:08:12;7.05;;;4.32;;
10845;SDS011;5476;51.540;7.186;2022-09-06T06:10:46;8.20;;;4.35;;
10845;SDS011;5476;51.540;7.186;2022-09-06T06:13:14;9.48;;;4.63;;
10845;SDS011;5476;51.540;7.186;2022-09-06T06:15:41;8.25;;;4.32;;
10845;SDS011;5476;51.540;7.186;2022-09-06T06:18:08;9.43;;;4.38;;
10845;SDS011;5476;51.540;7.186;2022-09-06T06:20:36;6.40;;;4.00;;
10845;SDS011;5476;51.540;7.186;2022-09-06T06:23:03;6.95;;;4.00;;
10845;SDS011;5476;51.540;7.186;2022-09-06T06:25:30;9.25;;;4.53;;
10845;SDS011;5476;51.540;7.186;2022-09-06T06:27:59;7.07;;;3.78;;
10845;SDS011;5476;51.540;7.186;2022-09-06T06:30:26;5.28;;;3.90;;
10845;SDS011;5476;51.540;7.186;2022-09-06T06:32:53;6.85;;;3.60;;
10845;SDS011;5476;51.540;7.186;2022-09-06T06:35:32;4.32;;;3.40;;
10845;SDS011;5476;51.540;7.186;2022-09-06T06:37:59;10.00;;;3.67;;
10845;SDS011;5476;51.540;7.186;2022-09-06T06:40:27;4.13;;;3.17;;
10845;SDS011;5476;51.540;7.186;2022-09-06T06:42:55;8.15;;;3.85;;
10845;SDS011;5476;51.540;7.186;2022-09-06T06:45:23;9.55;;;4.00;;
10845;SDS011;5476;51.540;7.186;2022-09-06T06:47:50;7.75;;;4.40;;
10845;SDS011;5476;51.540;7.186;2022-09-06T06:50:17;5.50;;;3.55;;
10845;SDS011;5476;51.540;7.186;2022-09-06T06:52:45;5.15;;;3.17;;
10845;SDS011;5476;51.540;7.186;2022-09-06T06:55:12;6.53;;;3.70;;
10845;SDS011;5476;51.540;7.186;2022-09-06T06:57:39;8.02;;;3.40;;
10845;SDS011;5476;51.540;7.186;2022-09-06T07:00:06;6.45;;;3.30;;
10845;SDS011;5476;51.540;7.186;2022-09-06T07:02:36;6.70;;;3.10;;
10845;SDS011;5476;51.540;7.186;2022-09-06T07:05:03;5.78;;;3.47;;
10845;SDS011;5476;51.540;7.186;2022-09-06T07:07:31;6.32;;;3.22;;
10845;SDS011;5476;51.540;7.186;2022-09-06T07:09:58;5.40;;;3.30;;
10845;SDS011;5476;51.540;7.186;2022-09-06T07:12:25;4.80;;;3.05;;
10845;SDS011;5476;51.540;7.186;2022-09-06T07:14:52;5.35;;;2.88;;
10845;SDS011;5476;51.540;7.186;2022-09-06T07:17:20;4.70;;;2.97;;
10845;SDS011;5476;51.540;7.186;2022-09-06T07:19:49;3.80;;;2.60;;
10845;SDS011;5476;51.540;7.186;2022-09-06T07:22:16;6.20;;;3.60;;
10845;SDS011;5476;51.540;7.186;2022-09-06T07:24:43;2.90;;;2.70;;
10845;SDS011;5476;51.540;7.186;2022-09-06T07:27:10;6.20;;;3.35;;
10845;SDS011;5476;51.540;7.186;2022-09-06T07:29:38;7.40;;;2.70;;
10845;SDS011;5476;51.540;7.186;2022-09-06T07:32:05;2.95;;;2.47;;
10845;SDS011;5476;51.540;7.186;2022-09-06T07:34:32;3.38;;;2.60;;
10845;SDS011;5476;51.540;7.186;2022-09-06T07:37:03;6.57;;;2.55;;
10845;SDS011;5476;51.540;7.186;2022-09-06T07:39:30;4.15;;;2.80;;
10845;SDS011;5476;51.540;7.186;2022-09-06T07:41:57;7.53;;;4.05;;
10845;SDS011;5476;51.540;7.186;2022-09-06T07:44:25;3.47;;;2.30;;
10845;SDS011;5476;51.540;7.186;2022-09-06T07:46:53;2.70;;;2.50;;
10845;SDS011;5476;51.540;7.186;2022-09-06T07:49:20;4.88;;;2.60;;
10845;SDS011;5476;51.540;7.186;2022-09-06T07:51:47;3.05;;;2.08;;
10845;SDS011;5476;51.540;7.186;2022-09-06T07:54:18;2.80;;;2.17;;
10845;SDS011;5476;51.540;7.186;2022-09-06T07:56:45;3.85;;;2.00;;
10845;SDS011;5476;51.540;7.186;2022-09-06T07:59:12;3.00;;;2.20;;
10845;SDS011;5476;51.540;7.186;2022-09-06T08:01:39;2.53;;;1.88;;
10845;SDS011;5476;51.540;7.186;2022-09-06T08:04:07;2.95;;;1.80;;
10845;SDS011;5476;51.540;7.186;2022-09-06T08:06:37;2.67;;;1.80;;
10845;SDS011;5476;51.540;7.186;2022-09-06T08:09:06;4.20;;;2.05;;
10845;SDS011;5476;51.540;7.186;2022-09-06T08:11:36;2.70;;;2.00;;
10845;SDS011;5476;51.540;7.186;2022-09-06T08:14:04;2.22;;;2.00;;
10845;SDS011;5476;51.540;7.186;2022-09-06T08:16:32;2.33;;;2.13;;
10845;SDS011;5476;51.540;7.186;2022-09-06T08:18:59;3.10;;;2.20;;
10845;SDS011;5476;51.540;7.186;2022-09-06T08:21:28;4.97;;;2.45;;
10845;SDS011;5476;51.540;7.186;2022-09-06T08:23:57;5.82;;;1.90;;
10845;SDS011;5476;51.540;7.186;2022-09-06T08:26:26;2.38;;;2.10;;
10845;SDS011;5476;51.540;7.186;2022-09-06T08:28:56;3.15;;;1.88;;
10845;SDS011;5476;51.540;7.186;2022-09-06T08:31:24;2.20;;;1.70;;
10845;SDS011;5476;51.540;7.186;2022-09-06T08:33:52;3.53;;;1.80;;
10845;SDS011;5476;51.540;7.186;2022-09-06T08:36:20;2.22;;;1.77;;
10845;SDS011;5476;51.540;7.186;2022-09-06T08:38:47;2.03;;;1.80;;
10845;SDS011;5476;51.540;7.186;2022-09-06T08:41:17;2.17;;;1.83;;
10845;SDS011;5476;51.540;7.186;2022-09-06T08:43:51;1.90;;;1.67;;
10845;SDS011;5476;51.540;7.186;2022-09-06T08:46:20;1.65;;;1.55;;
10845;SDS011;5476;51.540;7.186;2022-09-06T08:48:48;1.77;;;1.67;;
10845;SDS011;5476;51.540;7.186;2022-09-06T08:51:24;3.13;;;1.83;;
10845;SDS011;5476;51.540;7.186;2022-09-06T08:53:56;5.68;;;1.90;;
10845;SDS011;5476;51.540;7.186;2022-09-06T08:56:27;1.70;;;1.60;;
10845;SDS011;5476;51.540;7.186;2022-09-06T08:58:58;3.15;;;1.63;;
10845;SDS011;5476;51.540;7.186;2022-09-06T09:01:31;3.38;;;2.03;;
10845;SDS011;5476;51.540;7.186;2022-09-06T09:04:01;1.83;;;1.52;;
10845;SDS011;5476;51.540;7.186;2022-09-06T09:06:30;1.60;;;1.50;;
10845;SDS011;5476;51.540;7.186;2022-09-06T09:08:58;1.85;;;1.67;;
10845;SDS011;5476;51.540;7.186;2022-09-06T09:11:29;2.33;;;1.42;;
10845;SDS011;5476;51.540;7.186;2022-09-06T09:13:59;1.90;;;1.80;;
10845;SDS011;5476;51.540;7.186;2022-09-06T09:16:27;2.15;;;1.60;;
10845;SDS011;5476;51.540;7.186;2022-09-06T09:18:57;2.35;;;1.60;;
10845;SDS011;5476;51.540;7.186;2022-09-06T09:21:27;1.50;;;1.40;;
10845;SDS011;5476;51.540;7.186;2022-09-06T09:23:55;5.22;;;1.52;;
10845;SDS011;5476;51.540;7.186;2022-09-06T09:26:24;1.55;;;1.40;;
10845;SDS011;5476;51.540;7.186;2022-09-06T09:29:02;2.35;;;1.52;;
10845;SDS011;5476;51.540;7.186;2022-09-06T09:31:32;2.28;;;1.42;;
10845;SDS011;5476;51.540;7.186;2022-09-06T09:34:01;3.80;;;1.40;;
10845;SDS011;5476;51.540;7.186;2022-09-06T09:36:29;1.60;;;1.50;;
10845;SDS011;5476;51.540;7.186;2022-09-06T09:38:56;1.92;;;1.42;;
10845;SDS011;5476;51.540;7.186;2022-09-06T09:41:26;1.45;;;1.20;;
10845;SDS011;5476;51.540;7.186;2022-09-06T09:43:55;1.85;;;1.35;;
10845;SDS011;5476;51.540;7.186;2022-09-06T09:46:29;1.95;;;1.48;;
10845;SDS011;5476;51.540;7.186;2022-09-06T09:48:59;2.15;;;1.52;;
10845;SDS011;5476;51.540;7.186;2022-09-06T09:51:29;1.40;;;1.30;;
10845;SDS011;5476;51.540;7.186;2022-09-06T09:53:57;1.50;;;1.23;;
10845;SDS011;5476;51.540;7.186;2022-09-06T09:56:28;1.25;;;1.00;;
10845;SDS011;5476;51.540;7.186;2022-09-06T09:58:56;1.23;;;1.13;;
10845;SDS011;5476;51.540;7.186;2022-09-06T10:01:25;1.17;;;1.00;;
10845;SDS011;5476;51.540;7.186;2022-09-06T10:03:59;1.02;;;1.02;;
10845;SDS011;5476;51.540;7.186;2022-09-06T10:06:27;1.90;;;1.10;;
10845;SDS011;5476;51.540;7.186;2022-09-06T10:08:55;1.40;;;1.30;;
10845;SDS011;5476;51.540;7.186;2022-09-06T10:11:36;2.53;;;1.40;;
10845;SDS011;5476;51.540;7.186;2022-09-06T10:14:08;1.05;;;1.00;;
10845;SDS011;5476;51.540;7.186;2022-09-06T10:16:42;1.35;;;1.10;;
10845;SDS011;5476;51.540;7.186;2022-09-06T10:19:23;1.65;;;1.10;;
10845;SDS011;5476;51.540;7.186;2022-09-06T10:21:58;1.65;;;1.40;;
10845;SDS011;5476;51.540;7.186;2022-09-06T10:24:33;1.58;;;1.27;;
10845;SDS011;5476;51.540;7.186;2022-09-06T10:27:03;2.60;;;1.20;;
10845;SDS011;5476;51.540;7.186;2022-09-06T10:29:32;1.30;;;1.20;;
10845;SDS011;5476;51.540;7.186;2022-09-06T10:32:04;4.57;;;1.20;;
10845;SDS011;5476;51.540;7.186;2022-09-06T10:37:27;2.22;;;1.58;;
10845;SDS011;5476;51.540;7.186;2022-09-06T10:40:03;1.63;;;1.40;;
10845;SDS011;5476;51.540;7.186;2022-09-06T10:42:45;1.88;;;1.20;;
10845;SDS011;5476;51.540;7.186;2022-09-06T10:45:27;2.35;;;1.40;;
10845;SDS011;5476;51.540;7.186;2022-09-06T10:47:58;1.65;;;1.40;;
10845;SDS011;5476;51.540;7.186;2022-09-06T10:50:31;1.63;;;1.40;;
10845;SDS011;5476;51.540;7.186;2022-09-06T10:53:09;3.72;;;1.98;;
10845;SDS011;5476;51.540;7.186;2022-09-06T10:55:38;1.45;;;1.20;;
10845;SDS011;5476;51.540;7.186;2022-09-06T10:58:11;2.00;;;1.35;;
10845;SDS011;5476;51.540;7.186;2022-09-06T11:01:17;2.30;;;1.50;;
10845;SDS011;5476;51.540;7.186;2022-09-06T11:03:48;1.40;;;1.27;;
10845;SDS011;5476;51.540;7.186;2022-09-06T11:06:26;2.38;;;1.58;;
10845;SDS011;5476;51.540;7.186;2022-09-06T11:08:56;2.17;;;1.40;;
10845;SDS011;5476;51.540;7.186;2022-09-06T11:14:36;1.63;;;1.33;;
10845;SDS011;5476;51.540;7.186;2022-09-06T11:17:06;1.77;;;1.50;;
10845;SDS011;5476;51.540;7.186;2022-09-06T11:20:01;2.13;;;1.42;;
10845;SDS011;5476;51.540;7.186;2022-09-06T11:22:50;2.10;;;2.00;;
10845;SDS011;5476;51.540;7.186;2022-09-06T11:25:42;1.42;;;1.30;;
10845;SDS011;5476;51.540;7.186;2022-09-06T11:28:24;3.08;;;1.63;;
10845;SDS011;5476;51.540;7.186;2022-09-06T11:30:58;3.10;;;1.80;;
10845;SDS011;5476;51.540;7.186;2022-09-06T11:33:32;2.90;;;1.83;;
10845;SDS011;5476;51.540;7.186;2022-09-06T11:38:52;2.13;;;1.85;;
10845;SDS011;5476;51.540;7.186;2022-09-06T11:41:42;1.73;;;1.63;;
10845;SDS011;5476;51.540;7.186;2022-09-06T11:47:54;4.43;;;1.70;;
10845;SDS011;5476;51.540;7.186;2022-09-06T11:57:08;2.83;;;1.70;;
10845;SDS011;5476;51.540;7.186;2022-09-06T11:59:58;3.15;;;1.38;;
10845;SDS011;5476;51.540;7.186;2022-09-06T12:41:35;2.83;;;1.83;;
10845;SDS011;5476;51.540;7.186;2022-09-06T12:44:07;3.35;;;1.92;;
10845;SDS011;5476;51.540;7.186;2022-09-06T12:47:13;1.83;;;1.73;;
10845;SDS011;5476;51.540;7.186;2022-09-06T12:50:12;1.75;;;1.65;;
10845;SDS011;5476;51.540;7.186;2022-09-06T13:01:51;2.20;;;1.42;;
10845;SDS011;5476;51.540;7.186;2022-09-06T13:04:43;1.98;;;1.70;;
10845;SDS011;5476;51.540;7.186;2022-09-06T13:07:32;3.85;;;1.90;;
10845;SDS011;5476;51.540;7.186;2022-09-06T13:10:10;4.70;;;2.20;;
10845;SDS011;5476;51.540;7.186;2022-09-06T13:13:00;3.60;;;2.30;;
10845;SDS011;5476;51.540;7.186;2022-09-06T13:15:33;2.35;;;2.17;;
10845;SDS011;5476;51.540;7.186;2022-09-06T13:24:43;3.97;;;2.17;;
10845;SDS011;5476;51.540;7.186;2022-09-06T13:27:22;2.88;;;2.20;;
10845;SDS011;5476;51.540;7.186;2022-09-06T13:29:55;2.95;;;2.30;;
10845;SDS011;5476;51.540;7.186;2022-09-06T13:32:29;2.67;;;2.05;;
10845;SDS011;5476;51.540;7.186;2022-09-06T13:35:08;4.30;;;2.33;;
10845;SDS011;5476;51.540;7.186;2022-09-06T13:40:45;2.75;;;2.50;;
10845;SDS011;5476;51.540;7.186;2022-09-06T13:46:34;3.70;;;2.05;;
10845;SDS011;5476;51.540;7.186;2022-09-06T13:49:30;2.42;;;2.03;;
10845;SDS011;5476;51.540;7.186;2022-09-06T13:52:10;2.63;;;2.30;;
10845;SDS011;5476;51.540;7.186;2022-09-06T13:54:46;3.72;;;2.30;;
10845;SDS011;5476;51.540;7.186;2022-09-06T14:00:31;3.33;;;2.42;;
10845;SDS011;5476;51.540;7.186;2022-09-06T14:03:06;5.75;;;2.75;;
10845;SDS011;5476;51.540;7.186;2022-09-06T14:05:36;5.57;;;2.70;;
10845;SDS011;5476;51.540;7.186;2022-09-06T14:08:05;3.85;;;2.30;;
10845;SDS011;5476;51.540;7.186;2022-09-06T14:10:39;3.53;;;2.40;;
10845;SDS011;5476;51.540;7.186;2022-09-06T14:13:11;4.05;;;2.40;;
10845;SDS011;5476;51.540;7.186;2022-09-06T14:16:00;2.97;;;2.15;;
10845;SDS011;5476;51.540;7.186;2022-09-06T14:18:41;2.97;;;2.10;;
10845;SDS011;5476;51.540;7.186;2022-09-06T14:21:09;6.53;;;2.22;;
10845;SDS011;5476;51.540;7.186;2022-09-06T14:23:39;5.05;;;2.50;;
10845;SDS011;5476;51.540;7.186;2022-09-06T14:26:06;3.20;;;2.30;;
10845;SDS011;5476;51.540;7.186;2022-09-06T14:28:34;3.65;;;2.40;;
10845;SDS011;5476;51.540;7.186;2022-09-06T14:31:10;5.35;;;2.75;;
10845;SDS011;5476;51.540;7.186;2022-09-06T14:33:37;3.20;;;2.40;;
10845;SDS011;5476;51.540;7.186;2022-09-06T14:36:06;3.92;;;2.58;;
10845;SDS011;5476;51.540;7.186;2022-09-06T14:38:34;2.83;;;2.03;;
10845;SDS011;5476;51.540;7.186;2022-09-06T14:41:02;4.18;;;2.70;;
10845;SDS011;5476;51.540;7.186;2022-09-06T14:43:29;4.03;;;1.98;;
10845;SDS011;5476;51.540;7.186;2022-09-06T14:46:00;3.08;;;2.20;;
10845;SDS011;5476;51.540;7.186;2022-09-06T14:48:31;3.30;;;2.67;;
10845;SDS011;5476;51.540;7.186;2022-09-06T14:51:05;2.53;;;2.17;;
10845;SDS011;5476;51.540;7.186;2022-09-06T14:53:33;3.38;;;2.22;;
10845;SDS011;5476;51.540;7.186;2022-09-06T14:56:00;2.58;;;2.20;;
10845;SDS011;5476;51.540;7.186;2022-09-06T14:58:31;3.88;;;2.25;;
10845;SDS011;5476;51.540;7.186;2022-09-06T15:01:05;2.67;;;2.10;;
10845;SDS011;5476;51.540;7.186;2022-09-06T15:03:34;3.45;;;2.17;;
10845;SDS011;5476;51.540;7.186;2022-09-06T15:06:01;2.72;;;2.13;;
10845;SDS011;5476;51.540;7.186;2022-09-06T15:08:29;5.55;;;2.55;;
10845;SDS011;5476;51.540;7.186;2022-09-06T15:10:56;4.22;;;2.17;;
10845;SDS011;5476;51.540;7.186;2022-09-06T15:13:23;3.03;;;2.17;;
10845;SDS011;5476;51.540;7.186;2022-09-06T15:15:51;2.38;;;2.05;;
10845;SDS011;5476;51.540;7.186;2022-09-06T15:18:20;6.38;;;2.75;;
10845;SDS011;5476;51.540;7.186;2022-09-06T15:20:48;3.05;;;2.25;;
10845;SDS011;5476;51.540;7.186;2022-09-06T15:23:15;2.92;;;2.47;;
10845;SDS011;5476;51.540;7.186;2022-09-06T15:25:46;3.67;;;2.60;;
10845;SDS011;5476;51.540;7.186;2022-09-06T15:28:13;3.28;;;2.20;;
10845;SDS011;5476;51.540;7.186;2022-09-06T15:30:41;4.00;;;2.40;;
10845;SDS011;5476;51.540;7.186;2022-09-06T15:33:09;2.63;;;2.35;;
10845;SDS011;5476;51.540;7.186;2022-09-06T15:35:38;3.47;;;2.28;;
10845;SDS011;5476;51.540;7.186;2022-09-06T15:38:07;3.15;;;2.10;;
10845;SDS011;5476;51.540;7.186;2022-09-06T15:40:35;2.95;;;2.08;;
10845;SDS011;5476;51.540;7.186;2022-09-06T15:43:02;3.53;;;1.98;;
10845;SDS011;5476;51.540;7.186;2022-09-06T15:45:29;3.35;;;2.28;;
10845;SDS011;5476;51.540;7.186;2022-09-06T15:47:56;3.75;;;2.28;;
10845;SDS011;5476;51.540;7.186;2022-09-06T15:50:24;3.15;;;2.40;;
10845;SDS011;5476;51.540;7.186;2022-09-06T15:52:51;4.30;;;2.20;;
10845;SDS011;5476;51.540;7.186;2022-09-06T15:55:20;4.10;;;2.35;;
10845;SDS011;5476;51.540;7.186;2022-09-06T15:58:05;2.88;;;2.25;;
10845;SDS011;5476;51.540;7.186;2022-09-06T16:00:35;3.95;;;2.20;;
10845;SDS011;5476;51.540;7.186;2022-09-06T16:03:02;3.58;;;2.22;;
10845;SDS011;5476;51.540;7.186;2022-09-06T16:05:32;3.65;;;1.95;;
10845;SDS011;5476;51.540;7.186;2022-09-06T16:08:00;5.60;;;2.50;;
10845;SDS011;5476;51.540;7.186;2022-09-06T16:10:28;4.05;;;2.30;;
10845;SDS011;5476;51.540;7.186;2022-09-06T16:12:55;4.75;;;2.58;;
10845;SDS011;5476;51.540;7.186;2022-09-06T16:15:26;6.40;;;2.63;;
10845;SDS011;5476;51.540;7.186;2022-09-06T16:17:53;3.30;;;2.42;;
10845;SDS011;5476;51.540;7.186;2022-09-06T16:20:21;2.60;;;2.25;;
10845;SDS011;5476;51.540;7.186;2022-09-06T16:22:49;2.80;;;2.55;;
10845;SDS011;5476;51.540;7.186;2022-09-06T16:25:19;3.25;;;1.92;;
10845;SDS011;5476;51.540;7.186;2022-09-06T16:27:47;4.45;;;2.40;;
10845;SDS011;5476;51.540;7.186;2022-09-06T16:30:15;3.55;;;2.63;;
10845;SDS011;5476;51.540;7.186;2022-09-06T16:32:42;3.22;;;2.40;;
10845;SDS011;5476;51.540;7.186;2022-09-06T16:35:10;3.50;;;2.33;;
10845;SDS011;5476;51.540;7.186;2022-09-06T16:37:37;4.70;;;2.63;;
10845;SDS011;5476;51.540;7.186;2022-09-06T16:40:05;5.13;;;2.05;;
10845;SDS011;5476;51.540;7.186;2022-09-06T16:42:33;3.25;;;2.60;;
10845;SDS011;5476;51.540;7.186;2022-09-06T16:45:02;3.20;;;2.22;;
10845;SDS011;5476;51.540;7.186;2022-09-06T16:47:29;2.80;;;1.95;;
10845;SDS011;5476;51.540;7.186;2022-09-06T16:49:57;5.75;;;1.83;;
10845;SDS011;5476;51.540;7.186;2022-09-06T16:52:24;2.88;;;2.20;;
10845;SDS011;5476;51.540;7.186;2022-09-06T16:54:51;4.47;;;2.20;;
10845;SDS011;5476;51.540;7.186;2022-09-06T16:57:19;5.13;;;2.28;;
10845;SDS011;5476;51.540;7.186;2022-09-06T16:59:48;3.42;;;1.88;;
10845;SDS011;5476;51.540;7.186;2022-09-06T17:02:17;2.50;;;2.00;;
10845;SDS011;5476;51.540;7.186;2022-09-06T17:04:46;2.95;;;2.08;;
10845;SDS011;5476;51.540;7.186;2022-09-06T17:07:18;3.10;;;2.30;;
10845;SDS011;5476;51.540;7.186;2022-09-06T17:09:45;2.70;;;2.08;;
10845;SDS011;5476;51.540;7.186;2022-09-06T17:12:12;2.58;;;2.33;;
10845;SDS011;5476;51.540;7.186;2022-09-06T17:14:40;3.97;;;2.00;;
10845;SDS011;5476;51.540;7.186;2022-09-06T17:17:08;4.93;;;2.15;;
10845;SDS011;5476;51.540;7.186;2022-09-06T17:19:36;2.15;;;1.88;;
10845;SDS011;5476;51.540;7.186;2022-09-06T17:22:04;4.10;;;2.28;;
10845;SDS011;5476;51.540;7.186;2022-09-06T17:24:33;6.47;;;2.20;;
10845;SDS011;5476;51.540;7.186;2022-09-06T17:27:01;2.60;;;2.28;;
10845;SDS011;5476;51.540;7.186;2022-09-06T17:29:28;5.35;;;2.40;;
10845;SDS011;5476;51.540;7.186;2022-09-06T17:31:56;3.28;;;2.38;;